Time;durP1;ratioP1;P1;durP2;ratioP2;P2;SDS_P1;SDS_P2;PMS_P1;PMS_P2;Temp;Humidity;BMP_temperature;BMP_pressure;BME280_temperature;BME280_humidity;BME280_pressure;Samples;Min_cycle;Max_cycle;Signal;HPM_P1;HPM_P2
2022/06/22 00:01:56;;;;;;;26.63;11.98;;;;;;;;;;5056881;28;20135;-77
2022/06/22 00:04:28;;;;;;;28.55;13.38;;;12.80;99.90;;;;;;5073011;28;20095;-77
2022/06/22 00:07:24;;;;;;;28.75;11.27;;;12.80;99.90;;;;;;5056698;28;20040;-78
2022/06/22 00:09:58;;;;;;;28.27;13.73;;;12.70;99.90;;;;;;5042985;28;20426;-78
2022/06/22 00:12:27;;;;;;;29.83;12.23;;;12.70;99.90;;;;;;5073926;28;20052;-77
2022/06/22 00:14:56;;;;;;;36.67;13.02;;;12.70;99.90;;;;;;5072869;28;20098;-77
2022/06/22 00:17:27;;;;;;;32.05;12.63;;;12.70;99.90;;;;;;5072852;28;20135;-77
2022/06/22 00:20:00;;;;;;;28.50;11.73;;;12.60;99.90;;;;;;5073304;28;20094;-78
2022/06/22 00:22:26;;;;;;;28.63;11.60;;;12.60;99.90;;;;;;5055430;28;20131;-78
2022/06/22 00:24:59;;;;;;;27.30;11.18;;;12.60;99.90;;;;;;5071793;28;20525;-78
2022/06/22 00:27:30;;;;;;;34.30;11.10;;;12.50;99.90;;;;;;5073339;28;20152;-77
2022/06/22 00:30:07;;;;;;;26.73;11.05;;;12.50;99.90;;;;;;5075584;28;20044;-76
2022/06/22 00:32:33;;;;;;;34.08;13.23;;;12.50;99.90;;;;;;5077043;28;20048;-77
2022/06/22 00:35:37;;;;;;;31.98;13.02;;;12.50;99.90;;;;;;5075731;28;20467;-77
2022/06/22 00:38:05;;;;;;;30.08;11.82;;;12.40;99.90;;;;;;5075178;28;20051;-77
2022/06/22 00:40:35;;;;;;;28.67;12.80;;;12.30;99.90;;;;;;5076747;28;20076;-76
2022/06/22 00:43:01;;;;;;;33.45;12.68;;;12.40;99.90;;;;;;5075808;28;20135;-76
2022/06/22 00:45:29;;;;;;;25.52;11.70;;;12.30;99.90;;;;;;5076031;28;20113;-76
2022/06/22 00:47:55;;;;;;;34.30;11.65;;;12.30;99.90;;;;;;5076628;28;20045;-77
2022/06/22 00:50:26;;;;;;;35.20;12.40;;;12.30;99.90;;;;;;5079066;28;20110;-80
2022/06/22 00:52:54;;;;;;;31.67;11.30;;;12.30;99.90;;;;;;5062181;28;20349;-78
2022/06/22 00:55:32;;;;;;;28.55;13.25;;;12.30;99.90;;;;;;5081417;28;20072;-77
2022/06/22 00:58:22;;;;;;;30.52;12.57;;;12.30;99.90;;;;;;5080498;28;20045;-78
2022/06/22 01:01:11;;;;;;;28.73;12.73;;;12.20;99.90;;;;;;5081483;28;20045;-78
2022/06/22 01:04:03;;;;;;;30.98;12.63;;;12.20;99.90;;;;;;5063037;28;20071;-80
2022/06/22 01:06:53;;;;;;;26.92;12.00;;;12.10;99.90;;;;;;5080345;28;20052;-78
2022/06/22 01:09:33;;;;;;;34.75;13.02;;;12.10;99.90;;;;;;5079018;28;20063;-76
2022/06/22 01:12:17;;;;;;;32.88;13.57;;;12.00;99.90;;;;;;5074871;28;20131;-77
2022/06/22 01:14:53;;;;;;;30.65;12.13;;;12.00;99.90;;;;;;5076126;28;20125;-76
2022/06/22 01:17:41;;;;;;;33.83;12.40;;;12.00;99.90;;;;;;5086483;28;20068;-77
2022/06/22 01:20:13;;;;;;;32.35;12.82;;;11.90;99.90;;;;;;5086339;28;20340;-76
2022/06/22 01:23:01;;;;;;;30.83;12.30;;;11.90;99.90;;;;;;5078028;28;20056;-78
2022/06/22 01:26:05;;;;;;;35.92;12.13;;;11.90;99.90;;;;;;5079096;28;20128;-76
2022/06/22 01:28:31;;;;;;;35.03;12.52;;;11.80;99.90;;;;;;5075961;28;20088;-77
2022/06/22 01:31:04;;;;;;;35.10;12.70;;;11.80;99.90;;;;;;5074620;28;20060;-78
2022/06/22 01:33:37;;;;;;;34.63;12.60;;;11.70;99.90;;;;;;5075752;28;20347;-78
2022/06/22 01:36:32;;;;;;;34.47;12.90;;;11.70;99.90;;;;;;5074157;28;20186;-78
2022/06/22 01:38:59;;;;;;;29.13;11.73;;;11.70;99.90;;;;;;5072899;28;20052;-78
2022/06/22 01:41:53;;;;;;;25.80;11.88;;;11.70;99.90;;;;;;5041613;28;20076;-77
2022/06/22 01:44:30;;;;;;;35.60;14.07;;;11.60;99.90;;;;;;5073315;28;20052;-78
2022/06/22 01:47:11;;;;;;;29.60;11.85;;;11.60;99.90;;;;;;5075498;28;20385;-77
2022/06/22 01:49:43;;;;;;;34.78;12.30;;;11.50;99.90;;;;;;5075136;28;20048;-77
2022/06/22 01:52:46;;;;;;;34.95;13.55;;;11.50;99.90;;;;;;5073555;28;20048;-77
2022/06/22 01:55:29;;;;;;;27.13;11.73;;;11.50;99.90;;;;;;5073837;28;20151;-77
2022/06/22 01:58:19;;;;;;;32.75;12.35;;;11.40;99.90;;;;;;5073618;28;20091;-77
2022/06/22 02:00:53;;;;;;;27.38;11.43;;;11.40;99.90;;;;;;5074026;28;20059;-76
2022/06/22 02:03:22;;;;;;;31.30;12.07;;;11.40;99.90;;;;;;5073071;28;20048;-78
2022/06/22 02:07:44;;;;;;;31.15;13.23;;;11.40;99.90;;;;;;5074268;28;20136;-78
2022/06/22 02:08:51;;;;;;;32.03;12.88;;;11.40;99.90;;;;;;5074370;28;20044;-78
2022/06/22 02:11:21;;;;;;;42.97;13.43;;;11.40;99.90;;;;;;5074276;28;20048;-78
2022/06/22 02:13:56;;;;;;;29.42;11.98;;;11.40;99.90;;;;;;5074941;28;20040;-77
2022/06/22 02:16:41;;;;;;;31.00;12.70;;;11.30;99.90;;;;;;5056917;28;20067;-77
2022/06/22 02:19:14;;;;;;;34.13;12.30;;;11.30;99.90;;;;;;5075188;28;20045;-77
2022/06/22 02:21:55;;;;;;;31.65;13.55;;;11.20;99.90;;;;;;5074330;28;20048;-78
2022/06/22 02:24:33;;;;;;;29.10;12.48;;;11.20;99.90;;;;;;5074663;28;20056;-78
2022/06/22 02:27:01;;;;;;;24.45;10.85;;;11.10;99.90;;;;;;5073675;28;20041;-77
2022/06/22 02:29:33;;;;;;;29.15;12.30;;;11.10;99.90;;;;;;5072990;28;20098;-78
2022/06/22 02:32:02;;;;;;;29.88;11.80;;;11.00;99.90;;;;;;5076755;28;20055;-77
2022/06/22 02:34:30;;;;;;;28.38;12.05;;;11.00;99.90;;;;;;5074231;28;20075;-77
2022/06/22 02:36:57;;;;;;;29.15;11.93;;;10.90;99.90;;;;;;5074578;28;20353;-77
2022/06/22 02:39:25;;;;;;;24.63;11.50;;;10.90;99.90;;;;;;5074240;28;20538;-78
2022/06/22 02:44:40;;;;;;;31.00;12.50;;;10.80;99.90;;;;;;5073407;28;20044;-77
2022/06/22 02:47:26;;;;;;;29.65;11.55;;;10.80;99.90;;;;;;5072916;28;20051;-78
2022/06/22 02:50:24;;;;;;;27.90;11.88;;;10.70;99.90;;;;;;5073461;28;20082;-79
2022/06/22 02:53:14;;;;;;;31.02;12.85;;;10.70;99.90;;;;;;5073808;28;20083;-78
2022/06/22 02:55:40;;;;;;;32.17;12.98;;;10.70;99.90;;;;;;5072022;28;20053;-77
2022/06/22 02:58:27;;;;;;;29.58;12.43;;;10.70;99.90;;;;;;5073391;28;20041;-78
2022/06/22 03:00:54;;;;;;;31.98;12.13;;;10.70;99.90;;;;;;5072803;28;20519;-77
2022/06/22 03:03:22;;;;;;;32.28;12.68;;;10.60;99.90;;;;;;5072771;28;20089;-77
2022/06/22 03:05:51;;;;;;;35.63;13.93;;;10.70;99.90;;;;;;5071627;28;20040;-77
2022/06/22 03:08:20;;;;;;;32.80;14.02;;;10.70;99.90;;;;;;5072873;28;20048;-77
2022/06/22 03:11:04;;;;;;;35.28;14.93;;;10.70;99.90;;;;;;5072912;28;20040;-77
2022/06/22 03:13:55;;;;;;;38.92;14.75;;;10.70;99.90;;;;;;5054803;28;20465;-77
2022/06/22 03:16:37;;;;;;;33.53;12.93;;;10.70;99.90;;;;;;5067646;28;20056;-77
2022/06/22 03:19:11;;;;;;;35.20;13.80;;;10.70;99.90;;;;;;5073471;28;20044;-77
2022/06/22 03:21:38;;;;;;;34.70;14.35;;;10.80;99.90;;;;;;5071639;28;20073;-77
2022/06/22 03:24:13;;;;;;;28.83;13.30;;;10.70;99.90;;;;;;5071895;28;20054;-77
2022/06/22 03:26:42;;;;;;;31.73;13.73;;;10.70;99.90;;;;;;5072448;28;20097;-79
2022/06/22 03:29:12;;;;;;;33.67;13.65;;;10.80;99.90;;;;;;5073702;28;20044;-77
2022/06/22 03:31:46;;;;;;;32.08;14.23;;;10.70;99.90;;;;;;5088508;28;20049;-78
2022/06/22 03:34:20;;;;;;;38.95;14.30;;;10.70;99.90;;;;;;5072054;28;20052;-78
2022/06/22 03:36:58;;;;;;;35.22;13.80;;;10.70;99.90;;;;;;5072867;28;20151;-77
2022/06/22 03:39:30;;;;;;;37.60;14.73;;;10.70;99.90;;;;;;5073514;28;20137;-78
2022/06/22 03:42:07;;;;;;;36.10;15.20;;;10.70;99.90;;;;;;5073186;28;20040;-77
2022/06/22 03:44:40;;;;;;;35.38;14.30;;;10.70;99.90;;;;;;5071107;28;20135;-78
2022/06/22 03:47:25;;;;;;;34.13;15.23;;;10.90;99.90;;;;;;5071976;28;20124;-78
2022/06/22 03:50:03;;;;;;;35.07;14.90;;;11.00;99.90;;;;;;5072978;28;20075;-77
2022/06/22 03:52:36;;;;;;;34.05;14.43;;;11.00;99.90;;;;;;5073131;28;20663;-77
2022/06/22 03:55:10;;;;;;;34.53;15.43;;;10.90;99.90;;;;;;5071805;28;20047;-76
2022/06/22 03:57:40;;;;;;;27.95;13.63;;;10.90;99.90;;;;;;5072175;28;20484;-77
2022/06/22 04:00:08;;;;;;;36.17;15.07;;;10.90;99.90;;;;;;5072972;28;20044;-78
2022/06/22 04:02:35;;;;;;;31.20;14.35;;;10.80;99.90;;;;;;5073258;28;20484;-76
2022/06/22 04:05:02;;;;;;;36.17;15.45;;;10.80;99.90;;;;;;5076308;28;20037;-76
2022/06/22 04:07:39;;;;;;;31.02;13.75;;;10.70;99.90;;;;;;5076002;28;20056;-77
2022/06/22 04:10:07;;;;;;;;;;;10.70;99.90;;;;;;5076361;28;20059;-75
2022/06/22 04:12:41;;;;;;;31.58;13.70;;;10.60;99.90;;;;;;5082438;28;19921;-78
2022/06/22 04:15:25;;;;;;;35.95;15.52;;;10.60;99.90;;;;;;5087106;28;20044;-76
2022/06/22 04:17:55;;;;;;;40.55;18.60;;;10.60;99.90;;;;;;5080901;28;20048;-77
2022/06/22 04:20:49;;;;;;;34.72;15.85;;;10.60;99.90;;;;;;5077671;28;20048;-79
2022/06/22 04:23:36;;;;;;;39.85;17.15;;;10.60;99.90;;;;;;5076840;28;20121;-78
2022/06/22 04:26:22;;;;;;;;;;;10.60;99.90;;;;;;5075662;28;20048;-77
2022/06/22 04:28:51;;;;;;;41.47;15.85;;;10.60;99.90;;;;;;5075996;28;19920;-77
2022/06/22 04:31:26;;;;;;;40.97;15.43;;;10.60;99.90;;;;;;5075599;28;20456;-79
2022/06/22 04:34:04;;;;;;;33.50;15.05;;;10.70;99.90;;;;;;5075397;28;20110;-78
2022/06/22 04:36:56;;;;;;;35.40;15.57;;;10.80;99.90;;;;;;5076080;28;20341;-79
2022/06/22 04:39:30;;;;;;;41.67;16.92;;;10.80;99.90;;;;;;5073862;28;20057;-77
2022/06/22 04:41:57;;;;;;;39.83;16.58;;;10.80;99.90;;;;;;5075386;28;20132;-78
2022/06/22 04:44:28;;;;;;;42.40;17.33;;;10.90;99.90;;;;;;5075060;28;20423;-77
2022/06/22 04:46:58;;;;;;;43.97;17.42;;;11.00;99.90;;;;;;5075607;28;20095;-77
2022/06/22 04:49:31;;;;;;;36.63;15.75;;;11.10;99.90;;;;;;5074640;28;20146;-80
2022/06/22 04:52:18;;;;;;;44.22;17.73;;;11.20;99.90;;;;;;5057843;28;20055;-78
2022/06/22 04:54:45;;;;;;;37.10;16.00;;;11.30;99.90;;;;;;5057484;28;20056;-77
2022/06/22 04:57:19;;;;;;;38.45;16.23;;;11.40;99.90;;;;;;5075467;28;20437;-78
2022/06/22 04:59:47;;;;;;;40.05;16.85;;;11.50;99.90;;;;;;5057861;28;20438;-79
2022/06/22 05:02:15;;;;;;;43.65;17.83;;;11.50;99.90;;;;;;5074728;28;20048;-79
2022/06/22 05:04:53;;;;;;;43.85;17.73;;;11.70;99.90;;;;;;5073834;28;20044;-78
2022/06/22 05:07:53;;;;;;;45.15;17.08;;;11.70;99.90;;;;;;5074924;28;20503;-77
2022/06/22 05:10:46;;;;;;;38.60;17.67;;;11.70;99.90;;;;;;5108667;28;20088;-76
2022/06/22 05:13:19;;;;;;;38.47;17.13;;;11.80;99.90;;;;;;5074453;28;20052;-77
2022/06/22 05:15:48;;;;;;;38.63;17.25;;;11.90;99.90;;;;;;5074000;28;20548;-78
2022/06/22 05:18:21;;;;;;;40.42;16.52;;;11.90;99.90;;;;;;5074368;28;20452;-81
2022/06/22 05:21:16;;;;;;;38.33;18.33;;;12.10;99.90;;;;;;5074924;28;20063;-80
2022/06/22 05:23:47;;;;;;;39.35;16.85;;;12.10;99.90;;;;;;5075491;28;20102;-81
2022/06/22 05:26:18;;;;;;;37.65;16.70;;;12.20;99.90;;;;;;5075584;28;20048;-78
2022/06/22 05:28:53;;;;;;;39.33;17.00;;;12.30;99.90;;;;;;5075298;28;20063;-76
2022/06/22 05:31:25;;;;;;;46.00;18.00;;;12.40;99.90;;;;;;5058395;28;20052;-77
2022/06/22 05:33:55;;;;;;;49.70;18.50;;;12.40;99.90;;;;;;5108983;28;20052;-77
2022/06/22 05:36:24;;;;;;;42.58;17.58;;;12.60;99.90;;;;;;5074231;28;20052;-78
2022/06/22 05:38:54;;;;;;;38.28;16.90;;;12.60;99.90;;;;;;5057527;28;20170;-76
2022/06/22 05:41:25;;;;;;;39.00;18.05;;;12.70;99.90;;;;;;5074091;28;20044;-77
2022/06/22 05:43:51;;;;;;;41.25;18.98;;;12.80;99.90;;;;;;5073098;28;20089;-78
2022/06/22 05:46:17;;;;;;;76.28;43.65;;;12.90;99.90;;;;;;5074886;28;20095;-78
2022/06/22 05:48:46;;;;;;;44.80;23.25;;;13.00;99.90;;;;;;5075112;28;20205;-76
2022/06/22 05:51:25;;;;;;;40.30;18.70;;;13.10;99.90;;;;;;5074173;28;20109;-77
2022/06/22 05:54:00;;;;;;;46.47;18.73;;;13.20;99.90;;;;;;5075401;28;20041;-79
2022/06/22 05:56:44;;;;;;;40.65;18.83;;;13.20;99.90;;;;;;5075524;28;20110;-77
2022/06/22 05:59:16;;;;;;;41.08;19.17;;;13.30;99.90;;;;;;5074959;28;20044;-75
2022/06/22 06:01:56;;;;;;;39.33;18.58;;;13.40;99.90;;;;;;5073441;28;20098;-77
2022/06/22 06:04:31;;;;;;;40.50;18.52;;;13.40;99.90;;;;;;5072915;28;20127;-77
2022/06/22 06:07:03;;;;;;;47.70;18.90;;;13.50;99.90;;;;;;5074227;28;20040;-77
2022/06/22 06:09:33;;;;;;;37.30;17.67;;;13.60;99.90;;;;;;5074950;28;20055;-75
2022/06/22 06:12:21;;;;;;;42.85;19.00;;;13.60;99.90;;;;;;5075517;28;20511;-77
2022/06/22 06:14:51;;;;;;;44.50;18.70;;;13.80;99.90;;;;;;5074844;28;20045;-78
2022/06/22 06:17:17;;;;;;;43.58;17.60;;;13.90;99.90;;;;;;5077272;28;20140;-76
2022/06/22 06:19:48;;;;;;;42.03;18.27;;;14.00;99.90;;;;;;5076822;28;20124;-75
2022/06/22 06:22:13;;;;;;;38.72;17.17;;;14.10;99.90;;;;;;5075874;28;20047;-75
2022/06/22 06:27:36;;;;;;;41.10;17.08;;;14.30;99.90;;;;;;5073941;28;20060;-75
2022/06/22 06:30:22;;;;;;;34.95;17.13;;;14.40;99.90;;;;;;5073152;28;20079;-76
2022/06/22 06:33:10;;;;;;;42.65;18.48;;;14.60;99.90;;;;;;5074263;28;20127;-77
2022/06/22 06:35:48;;;;;;;33.40;15.73;;;14.70;99.90;;;;;;5072683;28;20040;-77
2022/06/22 06:38:30;;;;;;;38.63;17.00;;;14.80;99.90;;;;;;5074723;28;20373;-76
2022/06/22 06:41:13;;;;;;;37.85;15.30;;;14.90;99.90;;;;;;5073446;28;20502;-76
2022/06/22 06:43:45;;;;;;;37.92;15.38;;;15.10;99.90;;;;;;5073362;28;20057;-77
2022/06/22 06:46:33;;;;;;;32.03;14.57;;;15.20;99.90;;;;;;5073533;28;20064;-76
2022/06/22 06:49:05;;;;;;;29.90;13.40;;;15.30;99.90;;;;;;5073877;28;20048;-75
2022/06/22 06:51:33;;;;;;;25.65;12.88;;;15.30;99.90;;;;;;5073229;28;20418;-77
2022/06/22 06:54:16;;;;;;;29.60;13.73;;;15.30;99.90;;;;;;5072337;28;20394;-78
2022/06/22 06:57:10;;;;;;;27.42;13.50;;;15.50;99.90;;;;;;5073420;28;20134;-77
2022/06/22 06:59:39;;;;;;;28.48;13.23;;;15.60;99.90;;;;;;5069452;28;20056;-76
2022/06/22 07:02:16;;;;;;;27.05;13.70;;;15.80;99.90;;;;;;5055468;28;20052;-76
2022/06/22 07:04:43;;;;;;;26.70;13.05;;;15.80;99.90;;;;;;5073831;28;20139;-76
2022/06/22 07:07:34;;;;;;;34.63;14.98;;;15.90;99.90;;;;;;5074922;28;20055;-76
2022/06/22 07:10:07;;;;;;;35.38;13.63;;;15.80;99.90;;;;;;5081258;28;20064;-76
2022/06/22 07:12:39;;;;;;;33.42;14.23;;;15.90;99.90;;;;;;5083082;28;20045;-78
2022/06/22 07:15:09;;;;;;;37.83;14.52;;;16.00;99.90;;;;;;5076375;28;20076;-75
2022/06/22 07:17:35;;;;;;;30.85;14.55;;;16.10;99.90;;;;;;5071947;28;20131;-77
2022/06/22 07:20:13;;;;;;;28.93;15.33;;;16.10;99.90;;;;;;5039045;28;20083;-76
2022/06/22 07:22:50;;;;;;;28.83;13.52;;;16.20;99.90;;;;;;5073262;28;20047;-77
2022/06/22 07:25:40;;;;;;;29.17;13.30;;;16.30;99.90;;;;;;5071735;28;20049;-76
2022/06/22 07:28:23;;;;;;;27.48;13.18;;;16.50;99.90;;;;;;5073256;28;20473;-77
2022/06/22 07:30:59;;;;;;;33.03;13.52;;;16.40;99.90;;;;;;5073494;28;20041;-78
2022/06/22 07:33:51;;;;;;;29.77;14.18;;;16.50;99.90;;;;;;5074187;28;20391;-77
2022/06/22 07:36:23;;;;;;;25.23;12.73;;;16.60;99.90;;;;;;5075176;28;20052;-76
2022/06/22 07:39:03;;;;;;;26.55;12.23;;;16.70;99.90;;;;;;5072493;28;20370;-78
2022/06/22 07:41:30;;;;;;;24.30;10.77;;;16.80;99.90;;;;;;5072726;28;20056;-76
2022/06/22 07:44:17;;;;;;;30.67;10.98;;;16.90;99.90;;;;;;5070733;28;20048;-77
2022/06/22 07:46:49;;;;;;;23.83;10.82;;;17.00;99.90;;;;;;5071648;28;20063;-78
2022/06/22 07:49:26;;;;;;;27.55;14.10;;;17.20;99.90;;;;;;5073158;28;20171;-77
2022/06/22 07:52:01;;;;;;;31.98;12.45;;;17.30;99.90;;;;;;5073316;28;20052;-77
2022/06/22 07:54:41;;;;;;;21.95;10.98;;;17.40;99.90;;;;;;5072946;28;20051;-76
2022/06/22 07:57:13;;;;;;;21.35;10.10;;;17.40;99.90;;;;;;5072924;28;20052;-78
2022/06/22 08:00:06;;;;;;;23.77;10.18;;;17.50;99.90;;;;;;5075007;28;20040;-77
2022/06/22 08:02:47;;;;;;;19.83;9.35;;;17.60;99.90;;;;;;5075094;28;20052;-77
2022/06/22 08:05:18;;;;;;;21.40;10.43;;;17.60;99.90;;;;;;5075131;28;20051;-80
2022/06/22 08:07:56;;;;;;;18.98;8.48;;;17.60;99.90;;;;;;5073081;28;20037;-77
2022/06/22 08:10:32;;;;;;;16.40;8.20;;;17.60;99.90;;;;;;5074800;28;20383;-77
2022/06/22 08:13:01;;;;;;;18.88;8.52;;;17.70;99.90;;;;;;5076942;28;20044;-80
2022/06/22 08:15:30;;;;;;;20.27;10.20;;;17.80;99.90;;;;;;5074955;28;20052;-80
2022/06/22 08:17:58;;;;;;;16.52;8.57;;;18.00;99.90;;;;;;5073508;28;20469;-78
2022/06/22 08:20:28;;;;;;;19.30;8.90;;;18.10;99.90;;;;;;5076575;28;20044;-79
2022/06/22 08:22:57;;;;;;;30.08;16.15;;;18.10;99.90;;;;;;5073353;28;20100;-77
2022/06/22 08:25:23;;;;;;;18.65;9.63;;;18.10;99.90;;;;;;5078922;28;20091;-78
2022/06/22 08:27:50;;;;;;;17.40;8.13;;;18.00;99.90;;;;;;5075059;28;20050;-78
2022/06/22 08:30:17;;;;;;;19.90;8.15;;;18.20;99.90;;;;;;5076388;28;20052;-79
2022/06/22 08:32:51;;;;;;;24.05;11.77;;;18.40;99.90;;;;;;5078203;28;20396;-78
2022/06/22 08:35:45;;;;;;;26.40;13.70;;;18.40;99.90;;;;;;5079381;28;20064;-77
2022/06/22 08:38:42;;;;;;;22.67;8.95;;;18.40;99.90;;;;;;5085661;28;20120;-79
2022/06/22 08:41:33;;;;;;;25.30;8.20;;;18.60;99.90;;;;;;5084243;28;20522;-80
2022/06/22 08:44:10;;;;;;;15.55;7.75;;;18.80;99.90;;;;;;5062960;28;20048;-79
2022/06/22 08:46:42;;;;;;;15.45;7.55;;;18.80;99.90;;;;;;5077309;28;20063;-79
2022/06/22 08:49:23;;;;;;;16.25;5.90;;;18.80;99.90;;;;;;5080159;28;20131;-80
2022/06/22 08:52:03;;;;;;;14.25;5.47;;;18.80;99.90;;;;;;5083566;28;20072;-79
2022/06/22 08:54:53;;;;;;;13.32;5.78;;;18.80;99.90;;;;;;5066036;28;20051;-78
2022/06/22 08:57:24;;;;;;;19.10;11.15;;;18.80;99.90;;;;;;5084246;28;20055;-78
2022/06/22 09:00:12;;;;;;;15.88;6.18;;;18.90;99.90;;;;;;5081766;28;20131;-79
2022/06/22 09:02:47;;;;;;;11.43;5.13;;;19.00;99.90;;;;;;5065676;28;20060;-80
2022/06/22 09:05:18;;;;;;;12.43;5.07;;;19.20;99.90;;;;;;5117241;28;20116;-80
2022/06/22 09:07:58;;;;;;;10.25;4.15;;;19.20;99.90;;;;;;5086522;28;20060;-77
2022/06/22 09:10:32;;;;;;;11.32;3.53;;;19.10;99.90;;;;;;5086632;28;20104;-79
2022/06/22 09:13:10;;;;;;;11.00;4.13;;;19.30;99.90;;;;;;5084770;28;20049;-80
2022/06/22 09:15:48;;;;;;;12.25;5.30;;;19.20;97.40;;;;;;5082115;28;20044;-80
2022/06/22 09:18:41;;;;;;;10.35;3.90;;;19.40;98.50;;;;;;5088510;28;20082;-78
2022/06/22 09:21:19;;;;;;;8.02;3.28;;;19.50;98.80;;;;;;5091127;28;20127;-79
2022/06/22 09:24:00;;;;;;;8.95;3.40;;;19.70;97.80;;;;;;5092065;28;20044;-77
2022/06/22 09:26:54;;;;;;;11.77;5.00;;;19.80;95.40;;;;;;5095670;28;20041;-77
2022/06/22 09:29:47;;;;;;;6.60;2.65;;;19.80;93.30;;;;;;5093678;28;20070;-80
2022/06/22 09:32:27;;;;;;;5.80;2.20;;;19.90;95.10;;;;;;5091678;28;20055;-79
2022/06/22 09:34:55;;;;;;;6.25;1.92;;;20.00;95.00;;;;;;5088194;28;20128;-79
2022/06/22 09:37:37;;;;;;;8.60;2.92;;;20.20;93.80;;;;;;5086874;28;20041;-79
2022/06/22 09:40:21;;;;;;;7.13;2.47;;;20.20;92.50;;;;;;5087754;28;20048;-80
2022/06/22 09:43:25;;;;;;;5.88;1.77;;;20.30;89.60;;;;;;5073714;28;20197;-79
2022/06/22 09:46:21;;;;;;;6.55;1.90;;;20.20;88.00;;;;;;5082161;28;20044;-79
2022/06/22 09:49:06;;;;;;;4.85;1.77;;;20.20;83.50;;;;;;5078825;28;20400;-79
2022/06/22 09:52:01;;;;;;;5.97;1.92;;;20.20;83.60;;;;;;5080474;28;20595;-80
2022/06/22 09:57:37;;;;;;;8.73;2.90;;;20.20;81.20;;;;;;5078702;28;20094;-76
2022/06/22 10:00:10;;;;;;;5.80;2.80;;;20.30;83.80;;;;;;5075879;28;20103;-80
2022/06/22 10:02:47;;;;;;;8.18;3.28;;;20.40;84.70;;;;;;5078187;28;20080;-78
2022/06/22 10:05:48;;;;;;;7.75;2.42;;;20.40;82.60;;;;;;5078399;28;20174;-79
2022/06/22 10:08:43;;;;;;;6.78;2.08;;;20.20;77.80;;;;;;5085576;28;20044;-82
2022/06/22 10:11:41;;;;;;;7.15;2.33;;;20.50;81.80;;;;;;5081813;28;20155;-79
2022/06/22 10:14:31;;;;;;;9.85;3.47;;;20.70;83.40;;;;;;5023886;28;20060;-78
2022/06/22 10:17:26;;;;;;;6.30;2.08;;;20.70;74.40;;;;;;5076913;28;20484;-78
2022/06/22 10:20:14;;;;;;;5.50;1.88;;;20.80;80.60;;;;;;5077694;28;20418;-79
2022/06/22 10:22:46;;;;;;;4.45;2.00;;;21.00;81.30;;;;;;5079238;28;20045;-78
2022/06/22 10:25:49;;;;;;;4.15;1.73;;;21.10;82.00;;;;;;5079041;28;20045;-78
2022/06/22 10:28:53;;;;;;;6.07;2.17;;;21.00;73.70;;;;;;5078121;28;20128;-79
2022/06/22 10:31:46;;;;;;;9.50;2.53;;;21.00;77.00;;;;;;5078314;28;20110;-78
2022/06/22 10:34:25;;;;;;;8.15;2.03;;;21.20;78.50;;;;;;5060835;28;20052;-81
2022/06/22 10:37:46;;;;;;;8.73;2.30;;;21.40;79.10;;;;;;5081592;28;20389;-80
2022/06/22 10:45:08;;;;;;;8.50;2.50;;;21.20;72.10;;;;;;5039109;28;20408;-79
2022/06/22 10:46:30;;;;;;;7.38;2.80;;;21.40;79.20;;;;;;5079503;28;20059;-78
2022/06/22 10:49:37;;;;;;;8.82;2.47;;;21.60;77.80;;;;;;5078989;28;20049;-78
2022/06/22 10:52:32;;;;;;;7.20;2.22;;;21.60;72.20;;;;;;5079062;28;20045;-77
2022/06/22 10:55:11;;;;;;;4.85;1.95;;;21.40;70.00;;;;;;5078034;28;20044;-79
2022/06/22 10:57:58;;;;;;;5.85;2.30;;;21.50;74.30;;;;;;5075571;28;20124;-81
2022/06/22 11:00:35;;;;;;;9.75;2.72;;;21.50;67.80;;;;;;5060156;28;20131;-77
2022/06/22 11:03:17;;;;;;;12.82;2.95;;;21.00;68.90;;;;;;5074861;28;20048;-79
2022/06/22 11:06:17;;;;;;;10.30;2.60;;;21.40;72.60;;;;;;5075577;28;20103;-78
2022/06/22 11:08:55;;;;;;;8.43;3.00;;;21.50;71.60;;;;;;5061101;28;20044;-79
2022/06/22 11:11:49;;;;;;;13.98;2.70;;;21.20;71.40;;;;;;5076403;28;20048;-80
2022/06/22 11:14:49;;;;;;;9.57;2.80;;;21.50;71.00;;;;;;5078960;28;20040;-79
2022/06/22 11:17:26;;;;;;;8.07;2.47;;;21.70;72.30;;;;;;5084484;28;20051;-80
2022/06/22 11:20:32;;;;;;;11.40;2.70;;;21.80;71.90;;;;;;5066726;28;20045;-78
2022/06/22 11:23:27;;;;;;;9.95;2.58;;;21.80;67.00;;;;;;5077777;28;20048;-78
2022/06/22 11:32:41;;;;;;;5.28;1.85;;;22.00;65.70;;;;;;5077152;28;20063;-81
2022/06/22 11:35:25;;;;;;;7.32;2.15;;;22.20;66.80;;;;;;5057936;28;20079;-80
2022/06/22 11:38:20;;;;;;;5.32;1.73;;;22.40;66.70;;;;;;5075084;28;20423;-80
2022/06/22 11:41:23;;;;;;;6.03;1.73;;;22.40;65.60;;;;;;5076705;28;20052;-79
2022/06/22 11:44:07;;;;;;;5.95;2.22;;;22.40;64.70;;;;;;5074732;28;20424;-83
2022/06/22 11:46:41;;;;;;;8.25;2.35;;;22.60;66.30;;;;;;5059072;28;20136;-83
2022/06/22 11:49:23;;;;;;;8.20;2.25;;;22.70;65.30;;;;;;5073815;28;20122;-82
2022/06/22 11:51:55;;;;;;;7.90;2.42;;;22.80;64.30;;;;;;5078375;28;20048;-78
2022/06/22 11:54:45;;;;;;;6.57;2.22;;;22.60;60.60;;;;;;5063328;28;20048;-80
2022/06/22 11:57:37;;;;;;;6.18;2.20;;;22.70;62.90;;;;;;5075509;28;20050;-81
2022/06/22 12:00:29;;;;;;;6.45;1.90;;;22.90;63.10;;;;;;5070087;28;20067;-78
2022/06/22 12:03:21;;;;;;;7.28;1.98;;;22.90;63.20;;;;;;5073168;28;20131;-81
2022/06/22 12:05:58;;;;;;;5.63;1.85;;;23.00;61.20;;;;;;5075326;28;20082;-79
2022/06/22 12:08:29;;;;;;;7.10;2.30;;;23.10;61.60;;;;;;5076554;28;20056;-81
2022/06/22 12:11:18;;;;;;;6.25;2.65;;;23.00;61.00;;;;;;5061009;28;20127;-78
2022/06/22 12:17:17;;;;;;;7.10;2.67;;;22.90;64.50;;;;;;5074975;28;20052;-80
2022/06/22 12:20:08;;;;;;;6.63;1.98;;;22.90;60.90;;;;;;5076092;28;20186;-81
2022/06/22 12:22:53;;;;;;;8.52;2.13;;;23.00;58.30;;;;;;5074837;28;20091;-76
2022/06/22 12:26:08;;;;;;;5.03;1.70;;;23.10;60.30;;;;;;5076853;28;20044;-79
2022/06/22 12:28:52;;;;;;;7.80;2.78;;;23.20;61.70;;;;;;5024388;28;20452;-82
2022/06/22 12:31:30;;;;;;;13.57;2.50;;;23.20;60.30;;;;;;5079921;28;20060;-80
2022/06/22 12:34:12;;;;;;;5.15;2.22;;;23.30;61.50;;;;;;5077471;28;20052;-79
2022/06/22 12:36:42;;;;;;;5.88;2.38;;;23.20;57.60;;;;;;5080021;28;20106;-80
2022/06/22 12:39:13;;;;;;;8.02;2.10;;;23.30;61.00;;;;;;5076539;28;20048;-81
2022/06/22 12:42:02;;;;;;;7.63;1.98;;;23.30;58.10;;;;;;5078618;28;20513;-79
2022/06/22 12:44:49;;;;;;;7.35;2.10;;;23.50;60.50;;;;;;5060282;28;20048;-78
2022/06/22 12:47:44;;;;;;;7.03;1.92;;;23.30;57.70;;;;;;5076634;28;20139;-80
2022/06/22 12:50:50;;;;;;;6.53;1.92;;;23.40;59.10;;;;;;5068161;28;20141;-80
2022/06/22 12:53:25;;;;;;;6.68;1.77;;;23.50;58.50;;;;;;5060038;28;20422;-79
2022/06/22 12:56:01;;;;;;;5.82;1.73;;;23.30;52.00;;;;;;5076367;28;20128;-82
2022/06/22 12:58:31;;;;;;;6.93;1.60;;;23.50;55.60;;;;;;5077222;28;20366;-80
2022/06/22 13:00:58;;;;;;;4.55;1.58;;;23.50;56.30;;;;;;5077714;28;20051;-81
2022/06/22 13:03:32;;;;;;;5.25;1.38;;;23.50;52.50;;;;;;5078394;28;20045;-80
2022/06/22 13:05:58;;;;;;;7.20;1.52;;;23.40;53.40;;;;;;5086647;28;20128;-79
2022/06/22 13:08:28;;;;;;;5.53;2.13;;;23.40;51.30;;;;;;5087506;28;20040;-78
2022/06/22 13:11:01;;;;;;;6.85;1.80;;;22.90;50.90;;;;;;5079748;28;20044;-78
2022/06/22 13:13:45;;;;;;;5.40;1.52;;;23.00;53.40;;;;;;5078040;28;20045;-79
2022/06/22 13:16:35;;;;;;;5.90;1.60;;;23.20;54.40;;;;;;5076363;28;20498;-78
2022/06/22 13:19:25;;;;;;;4.88;1.70;;;23.40;55.60;;;;;;5076277;28;20048;-80
2022/06/22 13:22:04;;;;;;;5.70;1.40;;;23.70;53.70;;;;;;5073838;28;20297;-80
2022/06/22 13:24:35;;;;;;;5.88;1.58;;;23.80;55.20;;;;;;5076476;28;20048;-78
2022/06/22 13:27:19;;;;;;;7.13;1.67;;;23.90;55.40;;;;;;5076008;28;20143;-79
2022/06/22 13:30:20;;;;;;;7.00;1.35;;;24.00;55.00;;;;;;5075687;28;20508;-80
2022/06/22 13:32:56;;;;;;;6.18;1.63;;;24.10;54.00;;;;;;5076531;28;20512;-79
2022/06/22 13:35:31;;;;;;;5.65;1.38;;;24.20;53.50;;;;;;5074680;28;20488;-79
2022/06/22 13:38:16;;;;;;;6.15;1.48;;;24.30;53.50;;;;;;5074881;28;20135;-79
2022/06/22 13:41:15;;;;;;;6.70;1.73;;;24.30;52.90;;;;;;5058261;28;20112;-80
2022/06/22 13:44:13;;;;;;;6.90;1.70;;;24.10;51.90;;;;;;5073987;28;20055;-79
2022/06/22 13:47:07;;;;;;;9.57;1.70;;;23.90;49.80;;;;;;5075894;28;20059;-81
2022/06/22 13:50:21;;;;;;;6.18;1.67;;;23.80;51.40;;;;;;5059787;28;20049;-80
2022/06/22 13:52:54;;;;;;;7.28;1.77;;;23.70;49.50;;;;;;5042567;28;20140;-78
2022/06/22 13:55:28;;;;;;;6.00;1.77;;;23.90;52.40;;;;;;5077046;28;20044;-79
2022/06/22 13:58:13;;;;;;;6.22;1.55;;;24.00;52.10;;;;;;5059920;28;20040;-80
2022/06/22 14:01:06;;;;;;;6.90;2.05;;;24.10;52.20;;;;;;5075681;28;20135;-77